Schneifelwetter: Wetterstation Hallschlag, 537 m . NN
Wetterdaten: Freitag, 26.08.2011
Datum Zeit Temp. A. Feuchte A. Luftdruck Regen Wind Richtung Richtung Sonnenschein Helligkeit T Regen Taupunkt Windchill
26.08.2011 00:01 15,6 C 90 % 1011 hPa 0,0 l/m 0,0 km/h (0 Bft) W-SW 255 0 min 0 lux 0 min 14,0 C 15,6 C
26.08.2011 00:16 15,2 C 91 % 1011 hPa 0,0 l/m 0,0 km/h (0 Bft) W-SW 255 0 min 0 lux 0 min 13,7 C 15,2 C
26.08.2011 00:31 15,0 C 92 % 1011 hPa 0,0 l/m 0,0 km/h (0 Bft) W-SW 255 0 min 0 lux 0 min 13,7 C 15,0 C
26.08.2011 00:46 15,0 C 93 % 1011 hPa 0,0 l/m 5,9 km/h (2 Bft) S 180 0 min 0 lux 0 min 13,9 C 15,0 C
26.08.2011 01:01 15,0 C 93 % 1011 hPa 0,0 l/m 10,7 km/h (2 Bft) SO 140 0 min 0 lux 0 min 13,9 C 12,8 C
26.08.2011 01:16 16,0 C 95 % 1011 hPa 0,0 l/m 8,3 km/h (2 Bft) SO 140 0 min 0 lux 0 min 15,2 C 15,0 C
26.08.2011 01:31 16,0 C 95 % 1011 hPa 0,0 l/m 0,0 km/h (0 Bft) SO 140 0 min 0 lux 0 min 15,2 C 16,0 C
26.08.2011 01:46 16,3 C 95 % 1011 hPa 0,0 l/m 7,7 km/h (2 Bft) SO 135 0 min 0 lux 0 min 15,5 C 15,6 C
26.08.2011 02:01 16,4 C 95 % 1011 hPa 0,0 l/m 7,4 km/h (2 Bft) SO 135 0 min 0 lux 0 min 15,6 C 15,9 C
26.08.2011 02:16 16,4 C 96 % 1011 hPa 0,0 l/m 10,5 km/h (2 Bft) N-NO 30 0 min 0 lux 0 min 15,8 C 14,5 C
26.08.2011 02:31 16,3 C 96 % 1010 hPa 0,0 l/m 8,9 km/h (2 Bft) N-NO 30 0 min 0 lux 0 min 15,7 C 15,0 C
26.08.2011 02:46 16,3 C 96 % 1010 hPa 0,0 l/m 6,6 km/h (2 Bft) N-NO 30 0 min 0 lux 0 min 15,7 C 16,2 C
26.08.2011 03:01 16,4 C 96 % 1010 hPa 0,0 l/m 2,2 km/h (1 Bft) N-NO 30 0 min 0 lux 0 min 15,8 C 16,4 C
26.08.2011 03:16 16,4 C 96 % 1009 hPa 0,0 l/m 0,6 km/h (0 Bft) N-NO 30 0 min 0 lux 0 min 15,8 C 16,4 C
26.08.2011 03:31 16,1 C 95 % 1009 hPa 0,0 l/m 0,0 km/h (0 Bft) N-NO 30 0 min 0 lux 0 min 15,3 C 16,1 C
26.08.2011 03:46 15,7 C 95 % 1009 hPa 0,0 l/m 0,0 km/h (0 Bft) N-NO 30 0 min 0 lux 0 min 14,9 C 15,7 C
26.08.2011 04:01 15,6 C 95 % 1009 hPa 0,0 l/m 8,1 km/h (2 Bft) N-NO 30 0 min 0 lux 0 min 14,8 C 14,7 C
26.08.2011 04:16 16,0 C 96 % 1008 hPa 0,0 l/m 11,5 km/h (2 Bft) N-NO22.5 25 0 min 0 lux 0 min 15,4 C 13,6 C
26.08.2011 04:31 16,1 C 96 % 1008 hPa 0,0 l/m 14,2 km/h (3 Bft) N-NO22.5 15 0 min 0 lux 0 min 15,5 C 12,8 C
26.08.2011 04:46 15,8 C 96 % 1008 hPa 0,0 l/m 8,7 km/h (2 Bft) N-NO 15 0 min 0 lux 0 min 15,2 C 14,6 C
26.08.2011 05:00 15,6 C 96 % 1008 hPa 0,0 l/m 6,1 km/h (2 Bft) N 10 0 min 0 lux 0 min 15,0 C 15,6 C
26.08.2011 05:15 15,6 C 96 % 1008 hPa 0,0 l/m 8,1 km/h (2 Bft) N 10 0 min 0 lux 0 min 15,0 C 14,7 C
26.08.2011 05:30 15,5 C 96 % 1008 hPa 0,0 l/m 7,9 km/h (2 Bft) N-NO 15 0 min 0 lux 0 min 14,9 C 14,7 C
26.08.2011 05:45 15,4 C 96 % 1008 hPa 0,0 l/m 5,7 km/h (1 Bft) N-NO 30 0 min 0 lux 0 min 14,8 C 15,4 C
26.08.2011 06:00 15,4 C 96 % 1007 hPa 0,0 l/m 13,5 km/h (3 Bft) SO22.5 125 0 min 0 lux 0 min 14,8 C 12,2 C
26.08.2011 06:15 15,7 C 97 % 1007 hPa 0,3 l/m 13,3 km/h (3 Bft) S-SO22.5 150 0 min 0 lux 15 min 15,2 C 12,6 C
26.08.2011 06:30 16,1 C 96 % 1007 hPa 0,0 l/m 14,2 km/h (3 Bft) SO22.5 140 0 min 90 lux 0 min 15,5 C 12,8 C
26.08.2011 06:45 16,2 C 97 % 1007 hPa 0,0 l/m 12,7 km/h (3 Bft) SO22.5 145 0 min 588 lux 0 min 15,7 C 13,4 C
26.08.2011 07:00 16,4 C 96 % 1006 hPa 0,0 l/m 13,1 km/h (3 Bft) SO22.5 140 0 min 1,63 klux 0 min 15,8 C 13,5 C
26.08.2011 07:15 16,6 C 95 % 1006 hPa 0,0 l/m 12,0 km/h (2 Bft) SO22.5 135 0 min 5,47 klux 0 min 15,8 C 14,1 C
26.08.2011 07:30 17,2 C 94 % 1006 hPa 0,0 l/m 18,5 km/h (3 Bft) SO45 135 0 min 13,9 klux 0 min 16,2 C 12,9 C
26.08.2011 07:45 17,6 C 93 % 1006 hPa 0,0 l/m 18,4 km/h (3 Bft) SO22.5 140 0 min 17,1 klux 0 min 16,5 C 13,5 C
26.08.2011 08:00 18,0 C 91 % 1006 hPa 0,0 l/m 18,4 km/h (3 Bft) S-SO67.5 160 0 min 19,8 klux 0 min 16,5 C 14,0 C
26.08.2011 08:16 18,5 C 90 % 1006 hPa 0,0 l/m 18,2 km/h (3 Bft) S-SO22.5 150 0 min 20,4 klux 0 min 16,8 C 14,7 C
26.08.2011 08:31 19,0 C 88 % 1005 hPa 0,0 l/m 16,7 km/h (3 Bft) S-SO45 160 0 min 24,8 klux 0 min 17,0 C 15,6 C
26.08.2011 08:45 19,2 C 87 % 1005 hPa 0,0 l/m 20,5 km/h (4 Bft) S-SO45 150 0 min 13,1 klux 0 min 17,0 C 15,1 C
26.08.2011 09:00 19,9 C 86 % 1005 hPa 0,0 l/m 17,3 km/h (3 Bft) S-SO45 150 0 min 37,3 klux 0 min 17,5 C 16,6 C
26.08.2011 09:15 20,8 C 83 % 1005 hPa 0,0 l/m 20,3 km/h (4 Bft) SO45 145 0 min 44,9 klux 0 min 17,8 C 17,2 C
26.08.2011 09:30 21,4 C 81 % 1005 hPa 0,0 l/m 21,9 km/h (4 Bft) S-SO45 150 0 min 45,5 klux 0 min 18,0 C 17,7 C
26.08.2011 09:46 21,7 C 80 % 1005 hPa 0,0 l/m 20,5 km/h (4 Bft) S-SO45 165 0 min 30,4 klux 0 min 18,1 C 18,3 C
26.08.2011 10:01 22,4 C 78 % 1005 hPa 0,0 l/m 18,6 km/h (3 Bft) S-SO45 160 0 min 52,5 klux 0 min 18,4 C 19,5 C
26.08.2011 10:15 22,4 C 77 % 1005 hPa 0,0 l/m 23,5 km/h (4 Bft) S-SO45 160 0 min 58,8 klux 0 min 18,2 C 18,8 C
26.08.2011 10:30 22,8 C 76 % 1005 hPa 0,0 l/m 26,0 km/h (4 Bft) S45 170 0 min 37,4 klux 0 min 18,3 C 19,1 C
26.08.2011 10:45 23,0 C 75 % 1005 hPa 0,0 l/m 21,3 km/h (4 Bft) S22.5 180 0 min 57,8 klux 0 min 18,3 C 19,9 C
26.08.2011 11:00 22,5 C 75 % 1005 hPa 0,0 l/m 21,6 km/h (4 Bft) S45 180 0 min 26,3 klux 0 min 17,8 C 19,2 C
26.08.2011 11:16 22,8 C 75 % 1006 hPa 0,0 l/m 24,6 km/h (4 Bft) S-SW45 205 16 min 67,9 klux 0 min 18,1 C 19,2 C
26.08.2011 11:31 23,5 C 72 % 1005 hPa 0,0 l/m 31,3 km/h (5 Bft) S-SW45 205 15 min 69,1 klux 0 min 18,2 C 19,5 C
26.08.2011 11:45 24,3 C 68 % 1005 hPa 0,0 l/m 41,9 km/h (6 Bft) S45 185 14 min 84,5 klux 0 min 18,0 C 20,0 C
26.08.2011 12:00 24,2 C 68 % 1006 hPa 0,0 l/m 42,4 km/h (6 Bft) SW67.5 235 15 min 75,2 klux 0 min 17,9 C 19,8 C
26.08.2011 12:15 23,5 C 71 % 1006 hPa 0,0 l/m 34,3 km/h (5 Bft) S-SW45 205 0 min 56,1 klux 0 min 17,9 C 19,3 C
26.08.2011 12:30 24,0 C 70 % 1006 hPa 0,0 l/m 30,5 km/h (5 Bft) SW45 225 0 min 48,6 klux 0 min 18,2 C 20,3 C
26.08.2011 12:46 23,9 C 70 % 1006 hPa 0,0 l/m 37,8 km/h (5 Bft) SW67.5 220 0 min 50,5 klux 0 min 18,1 C 19,6 C
26.08.2011 13:01 23,3 C 72 % 1006 hPa 0,0 l/m 35,6 km/h (5 Bft) SW67.5 230 0 min 32,8 klux 0 min 18,0 C 18,9 C
26.08.2011 13:15 22,0 C 76 % 1006 hPa 0,0 l/m 29,3 km/h (5 Bft) SW45 235 0 min 26,9 klux 0 min 17,6 C 17,6 C
26.08.2011 13:30 22,3 C 74 % 1006 hPa 0,0 l/m 36,0 km/h (5 Bft) W67.5 260 15 min 86,3 klux 0 min 17,4 C 17,4 C
26.08.2011 13:45 22,3 C 71 % 1005 hPa 0,0 l/m 30,3 km/h (5 Bft) W45 265 0 min 36,3 klux 0 min 16,8 C 17,9 C
26.08.2011 14:00 22,5 C 70 % 1005 hPa 0,0 l/m 23,3 km/h (4 Bft) W-SW22.5 255 0 min 52,2 klux 0 min 16,7 C 19,0 C
26.08.2011 14:16 22,7 C 67 % 1005 hPa 0,0 l/m 25,6 km/h (4 Bft) W22.5 265 0 min 55,6 klux 0 min 16,2 C 19,0 C
26.08.2011 14:31 22,2 C 64 % 1005 hPa 0,0 l/m 29,0 km/h (5 Bft) W22.5 265 0 min 29,9 klux 0 min 15,1 C 17,9 C
26.08.2011 14:45 22,5 C 65 % 1005 hPa 0,0 l/m 23,4 km/h (4 Bft) W22.5 265 14 min 60,7 klux 0 min 15,6 C 19,0 C
26.08.2011 15:00 22,3 C 63 % 1006 hPa 0,0 l/m 36,4 km/h (5 Bft) W22.5 265 0 min 32,2 klux 0 min 14,9 C 17,4 C
26.08.2011 15:15 21,0 C 65 % 1006 hPa 0,0 l/m 41,8 km/h (6 Bft) W45 270 0 min 19,6 klux 0 min 14,2 C 15,1 C
26.08.2011 15:30 19,8 C 69 % 1007 hPa 0,0 l/m 38,4 km/h (5 Bft) W45 260 0 min 9,1 klux 0 min 13,9 C 13,6 C
26.08.2011 15:46 18,6 C 75 % 1007 hPa 0,0 l/m 25,3 km/h (4 Bft) S-SW67.5 195 0 min 4,01 klux 0 min 14,1 C 13,4 C
26.08.2011 16:01 17,3 C 81 % 1007 hPa 0,0 l/m 24,6 km/h (4 Bft) W-SW67.5 240 0 min 3,33 klux 0 min 14,0 C 11,8 C
26.08.2011 16:15 16,9 C 83 % 1006 hPa 2,4 l/m 11,1 km/h (2 Bft) W-SW22.5 245 0 min 4,26 klux 14 min 14,0 C 14,8 C
26.08.2011 16:30 17,4 C 87 % 1006 hPa 0,0 l/m 9,8 km/h (2 Bft) S-SW22.5 205 0 min 44,1 klux 0 min 15,2 C 15,8 C
26.08.2011 16:45 18,6 C 84 % 1006 hPa 0,0 l/m 21,0 km/h (4 Bft) W-SW45 250 0 min 39,4 klux 0 min 15,8 C 14,2 C
26.08.2011 17:00 18,2 C 83 % 1006 hPa 0,0 l/m 25,8 km/h (4 Bft) W-SW45 245 0 min 20,2 klux 0 min 15,3 C 12,8 C
26.08.2011 17:16 18,0 C 83 % 1006 hPa 0,0 l/m 18,3 km/h (3 Bft) W-SW67.5 240 0 min 18,7 klux 0 min 15,1 C 14,0 C
26.08.2011 17:31 18,1 C 84 % 1006 hPa 0,0 l/m 11,6 km/h (2 Bft) W-SW22.5 250 0 min 13,7 klux 0 min 15,4 C 16,0 C
26.08.2011 17:45 17,9 C 84 % 1006 hPa 0,3 l/m 16,6 km/h (3 Bft) W-SW45 245 0 min 15,4 klux 14 min 15,2 C 14,3 C
26.08.2011 18:00 17,4 C 82 % 1007 hPa 0,0 l/m 30,5 km/h (5 Bft) W45 265 0 min 14,6 klux 0 min 14,3 C 11,0 C
26.08.2011 18:15 16,3 C 83 % 1007 hPa 0,0 l/m 35,9 km/h (5 Bft) W45 270 0 min 8,52 klux 0 min 13,4 C 8,7 C
26.08.2011 18:30 15,8 C 85 % 1007 hPa 0,0 l/m 27,6 km/h (4 Bft) W45 265 0 min 8,83 klux 0 min 13,3 C 9,2 C
26.08.2011 18:46 15,3 C 84 % 1007 hPa 0,0 l/m 30,3 km/h (5 Bft) W67.5 260 0 min 9,7 klux 0 min 12,6 C 8,1 C
26.08.2011 19:01 15,0 C 84 % 1007 hPa 0,0 l/m 30,3 km/h (5 Bft) W22.5 265 0 min 8,91 klux 0 min 12,3 C 7,6 C
26.08.2011 19:15 14,8 C 85 % 1007 hPa 0,0 l/m 31,8 km/h (5 Bft) W67.5 260 0 min 6,50 klux 0 min 12,3 C 7,1 C
26.08.2011 19:30 14,4 C 86 % 1007 hPa 0,0 l/m 33,6 km/h (5 Bft) W-SW45 250 0 min 3,23 klux 0 min 12,1 C 6,3 C
26.08.2011 19:45 14,2 C 87 % 1007 hPa 0,0 l/m 19,0 km/h (3 Bft) W45 260 0 min 2,22 klux 0 min 12,1 C 9,0 C
26.08.2011 20:00 14,1 C 88 % 1008 hPa 0,0 l/m 20,8 km/h (4 Bft) W-SW45 250 0 min 1,29 klux 0 min 12,1 C 8,4 C
26.08.2011 20:16 14,0 C 88 % 1008 hPa 0,0 l/m 19,5 km/h (3 Bft) W-SW45 255 0 min 517 lux 0 min 12,0 C 8,6 C
26.08.2011 20:31 13,9 C 88 % 1007 hPa 0,0 l/m 8,4 km/h (2 Bft) W-SW 255 0 min 225 lux 0 min 11,9 C 12,7 C
26.08.2011 20:45 13,6 C 89 % 1008 hPa 0,0 l/m 12,0 km/h (2 Bft) S 180 0 min 78 lux 0 min 11,8 C 10,7 C
26.08.2011 21:00 13,5 C 90 % 1008 hPa 0,0 l/m 7,2 km/h (2 Bft) S 180 0 min 9 lux 0 min 11,9 C 13,0 C
26.08.2011 21:15 13,4 C 90 % 1008 hPa 0,3 l/m 10,3 km/h (2 Bft) S 185 0 min 0 lux 15 min 11,8 C 11,2 C
26.08.2011 21:30 13,4 C 91 % 1008 hPa 0,3 l/m 0,0 km/h (0 Bft) S 185 0 min 0 lux 15 min 12,0 C 13,4 C
26.08.2011 21:46 13,4 C 91 % 1008 hPa 0,3 l/m 15,8 km/h (3 Bft) W-SW45 245 0 min 0 lux 16 min 12,0 C 9,0 C
26.08.2011 22:01 13,3 C 91 % 1009 hPa 0,3 l/m 10,2 km/h (2 Bft) SW45 220 0 min 0 lux 15 min 11,9 C 11,1 C
26.08.2011 22:15 13,2 C 92 % 1009 hPa 0,3 l/m 10,1 km/h (2 Bft) W-SW22.5 255 0 min 0 lux 14 min 11,9 C 11,1 C
26.08.2011 22:30 13,0 C 92 % 1009 hPa 0,3 l/m 10,3 km/h (2 Bft) W-SW22.5 245 0 min 0 lux 15 min 11,7 C 10,8 C
26.08.2011 22:45 13,0 C 93 % 1008 hPa 0,3 l/m 9,6 km/h (2 Bft) SW 225 0 min 0 lux 15 min 11,9 C 11,1 C
26.08.2011 23:00 12,9 C 93 % 1009 hPa 0,3 l/m 16,4 km/h (3 Bft) W-SW22.5 250 0 min 0 lux 15 min 11,8 C 8,2 C
26.08.2011 23:16 12,8 C 93 % 1008 hPa 0,0 l/m 14,0 km/h (3 Bft) W-SW22.5 250 0 min 0 lux 0 min 11,7 C 8,9 C
26.08.2011 23:31 12,8 C 93 % 1008 hPa 0,0 l/m 14,9 km/h (3 Bft) SW45 220 0 min 0 lux 0 min 11,7 C 8,6 C
26.08.2011 23:45 12,8 C 94 % 1008 hPa 0,0 l/m 17,2 km/h (3 Bft) W-SW22.5 250 0 min 0 lux 0 min 11,9 C 7,8 C
_ Min-Zeit 23:16 15:00 08:31 - 00:01 - - - - - 23:16 19:30
Minimum _ 12,8 C 63 % 1005 hPa - 0,0 km/h (0 Bft) - - - - - 11,7 C 6,3 C
_ Max-Zeit 11:45 06:15 00:01 16:15 12:00 - - 11:16 13:30 21:46 10:01 12:30
Maximum _ 24,3 C 97 % 1011 hPa 2,4 l/m 42,4 km/h
SW (6 Bft)
- - 16 min 86,3 klux 16 min 18,4 C 20,3 C
Durchschnitt _ 17,6 C 86 % 1007 hPa #5,4 l/m 18,0 km/h (3 Bft) W-SW - #1:29 h 17,1 klux #2:43 h 15,1 C 14,4 C